Time;durP1;ratioP1;P1;durP2;ratioP2;P2;SDS_P1;SDS_P2;PMS_P1;PMS_P2;Temp;Humidity;BMP_temperature;BMP_pressure;BME280_temperature;BME280_humidity;BME280_pressure;Samples;Min_cycle;Max_cycle;Signal;HPM_P1;HPM_P2
2022/07/13 00:00:57;;;;;;;4.10;3.90;;;23.00;99.90;;;;;;5024188;28;20469;-86
2022/07/13 00:03:24;;;;;;;4.80;4.60;;;23.00;99.90;;;;;;5025781;28;20506;-85
2022/07/13 00:05:51;;;;;;;5.10;4.90;;;23.00;99.90;;;;;;5022177;28;20846;-85
2022/07/13 00:08:17;;;;;;;5.30;5.00;;;23.00;99.90;;;;;;5031458;28;20466;-85
2022/07/13 00:10:44;;;;;;;4.10;3.90;;;23.00;99.90;;;;;;5026900;28;20467;-85
2022/07/13 00:13:12;;;;;;;5.33;5.13;;;23.00;99.90;;;;;;5034524;28;20463;-85
2022/07/13 00:15:39;;;;;;;5.60;5.30;;;23.00;99.90;;;;;;5027106;28;20462;-85
2022/07/13 00:18:06;;;;;;;12.37;11.80;;;23.00;99.90;;;;;;5016351;28;20508;-85
2022/07/13 00:20:33;;;;;;;10.57;10.17;;;22.90;99.90;;;;;;5023697;28;20463;-85
2022/07/13 00:23:00;;;;;;;15.50;14.73;;;22.90;99.90;;;;;;5017410;28;20463;-86
2022/07/13 00:25:27;;;;;;;128.63;124.03;;;22.90;99.90;;;;;;5032884;28;20450;-86
2022/07/13 00:27:53;;;;;;;91.10;88.07;;;22.90;99.90;;;;;;5030059;28;20483;-85
2022/07/13 00:30:22;;;;;;;95.07;91.97;;;22.90;99.90;;;;;;5034204;28;20475;-85
2022/07/13 00:32:48;;;;;;;69.73;67.40;;;22.90;99.90;;;;;;5026238;28;20458;-85
2022/07/13 00:35:15;;;;;;;76.23;73.67;;;22.90;99.90;;;;;;5029923;28;20462;-85
2022/07/13 00:37:43;;;;;;;108.27;104.57;;;22.90;99.90;;;;;;5024771;28;20459;-85
2022/07/13 00:40:10;;;;;;;68.47;66.00;;;22.90;99.90;;;;;;5023982;28;20564;-85
2022/07/13 00:42:37;;;;;;;81.67;78.97;;;22.80;99.90;;;;;;5030455;28;20463;-85
2022/07/13 00:45:05;;;;;;;58.27;56.30;;;22.80;99.90;;;;;;5037940;28;20479;-86
2022/07/13 00:47:33;;;;;;;175.57;169.33;;;22.90;99.90;;;;;;5019475;28;20501;-85
2022/07/13 00:50:01;;;;;;;204.47;197.77;;;22.80;99.90;;;;;;5019471;28;20469;-86
2022/07/13 00:52:28;;;;;;;121.00;117.03;;;22.80;99.90;;;;;;5027831;28;20803;-86
2022/07/13 00:54:56;;;;;;;90.83;87.73;;;22.80;99.90;;;;;;5024854;28;20481;-85
2022/07/13 00:57:22;;;;;;;84.10;81.33;;;22.80;99.90;;;;;;5013946;28;21562;-86
2022/07/13 00:59:50;;;;;;;63.53;61.30;;;22.80;99.90;;;;;;5039180;28;20461;-85
2022/07/13 01:02:16;;;;;;;40.27;38.87;;;22.80;99.90;;;;;;5013352;28;20867;-85
2022/07/13 01:04:45;;;;;;;30.83;29.77;;;22.80;99.90;;;;;;5016490;28;20455;-84
2022/07/13 01:07:12;;;;;;;35.40;34.20;;;22.80;99.90;;;;;;5018792;28;20817;-85
2022/07/13 01:09:41;;;;;;;21.07;20.37;;;22.70;99.90;;;;;;5031890;28;20454;-84
2022/07/13 01:12:08;;;;;;;21.60;20.80;;;22.70;99.90;;;;;;5016249;28;20466;-84
2022/07/13 01:14:36;;;;;;;27.50;26.57;;;22.70;99.90;;;;;;5034978;28;20456;-85
2022/07/13 01:17:03;;;;;;;19.40;18.70;;;22.70;99.90;;;;;;5011622;28;20454;-86
2022/07/13 01:19:30;;;;;;;15.83;15.20;;;22.70;99.90;;;;;;5011991;28;20463;-87
2022/07/13 01:22:00;;;;;;;16.90;16.20;;;22.70;99.90;;;;;;5028391;28;20875;-86
2022/07/13 01:24:29;;;;;;;8.37;7.90;;;22.70;99.90;;;;;;5030222;28;20990;-87
2022/07/13 01:26:57;;;;;;;11.37;10.97;;;22.70;99.90;;;;;;5035946;28;20478;-88
2022/07/13 01:29:24;;;;;;;6.10;5.80;;;22.70;99.90;;;;;;5034334;28;20825;-88
2022/07/13 01:31:51;;;;;;;7.53;7.13;;;22.60;99.90;;;;;;5019558;28;20473;-87
2022/07/13 01:34:18;;;;;;;6.33;6.03;;;22.60;99.90;;;;;;5021302;28;20467;-87
2022/07/13 01:36:46;;;;;;;5.50;5.00;;;22.60;99.90;;;;;;5017138;28;20463;-87
2022/07/13 01:39:13;;;;;;;9.93;9.53;;;22.60;99.90;;;;;;5022569;28;20465;-87
2022/07/13 01:41:41;;;;;;;8.10;7.70;;;22.60;99.90;;;;;;5026599;28;20447;-87
2022/07/13 01:44:08;;;;;;;6.47;6.13;;;22.60;99.90;;;;;;5028266;28;20862;-87
2022/07/13 01:46:34;;;;;;;6.83;6.53;;;22.50;99.90;;;;;;5015936;28;20486;-87
2022/07/13 01:49:01;;;;;;;3.90;3.60;;;22.50;99.90;;;;;;5019454;28;20456;-88
2022/07/13 01:51:28;;;;;;;3.13;2.93;;;22.50;99.90;;;;;;5020600;28;20447;-87
2022/07/13 01:53:56;;;;;;;4.23;3.97;;;22.50;99.90;;;;;;5033944;28;20462;-86
2022/07/13 01:56:23;;;;;;;3.90;3.70;;;22.50;99.90;;;;;;5021107;28;20457;-87
2022/07/13 01:58:51;;;;;;;3.43;3.13;;;22.50;99.90;;;;;;5021016;28;20826;-85
2022/07/13 02:01:17;;;;;;;3.27;3.03;;;22.50;99.90;;;;;;5026838;28;20466;-86
2022/07/13 02:03:44;;;;;;;3.30;2.67;;;22.50;99.90;;;;;;5029790;28;20446;-85
2022/07/13 02:06:11;;;;;;;3.03;2.83;;;22.50;99.90;;;;;;5026621;28;20474;-86
2022/07/13 02:08:38;;;;;;;5.37;5.03;;;22.50;99.90;;;;;;5017825;28;20459;-86
2022/07/13 02:11:05;;;;;;;2.93;2.73;;;22.50;99.90;;;;;;5022199;28;20457;-87
2022/07/13 02:13:32;;;;;;;4.23;3.93;;;22.40;99.90;;;;;;5027832;28;20465;-86
2022/07/13 02:16:00;;;;;;;4.10;3.30;;;22.40;99.90;;;;;;5008587;28;20465;-86
2022/07/13 02:18:27;;;;;;;3.50;3.20;;;22.40;99.90;;;;;;5033043;28;20461;-86
2022/07/13 02:20:54;;;;;;;2.80;2.60;;;22.40;99.90;;;;;;5035858;28;20445;-86
2022/07/13 02:23:21;;;;;;;3.93;3.70;;;22.40;99.90;;;;;;5030620;28;20470;-87
2022/07/13 02:25:47;;;;;;;3.00;2.57;;;22.30;99.90;;;;;;5035856;28;20466;-88
2022/07/13 02:28:15;;;;;;;2.60;2.40;;;22.30;99.90;;;;;;5034200;28;20495;-86
2022/07/13 02:30:41;;;;;;;3.07;2.87;;;22.30;99.90;;;;;;5028378;28;20561;-87
2022/07/13 02:33:11;;;;;;;4.10;3.80;;;22.30;99.90;;;;;;5023250;28;20566;-87
2022/07/13 02:35:38;;;;;;;3.27;2.97;;;22.30;99.90;;;;;;5022948;28;20463;-86
2022/07/13 02:38:05;;;;;;;3.73;2.53;;;22.30;99.90;;;;;;5019500;28;21016;-86
2022/07/13 02:40:32;;;;;;;2.80;2.60;;;22.30;99.90;;;;;;5031931;28;20929;-86
2022/07/13 02:42:58;;;;;;;3.10;2.80;;;22.20;99.90;;;;;;5022630;28;20453;-86
2022/07/13 02:45:25;;;;;;;3.63;2.80;;;22.30;99.90;;;;;;5020901;28;20463;-86
2022/07/13 02:47:52;;;;;;;3.00;2.80;;;22.20;99.90;;;;;;5018114;28;20482;-86
2022/07/13 02:50:21;;;;;;;3.60;3.30;;;22.20;99.90;;;;;;5028129;28;20455;-86
2022/07/13 02:52:47;;;;;;;2.50;2.30;;;22.20;99.90;;;;;;5029014;28;20466;-86
2022/07/13 02:55:14;;;;;;;4.17;3.87;;;22.20;99.90;;;;;;5027449;28;20459;-86
2022/07/13 02:57:41;;;;;;;4.00;3.30;;;22.20;99.90;;;;;;5032592;28;20450;-86
2022/07/13 03:00:09;;;;;;;3.50;3.20;;;22.20;99.90;;;;;;5036499;28;21161;-89
2022/07/13 03:02:36;;;;;;;3.00;2.80;;;22.10;99.90;;;;;;5032674;28;20844;-92
2022/07/13 03:05:03;;;;;;;2.60;2.40;;;22.10;99.90;;;;;;5029507;28;20470;-92
2022/07/13 03:07:31;;;;;;;3.20;3.00;;;22.10;99.90;;;;;;5033719;28;20981;-92
2022/07/13 03:09:58;;;;;;;3.67;3.37;;;22.10;99.90;;;;;;5023637;28;20454;-91
2022/07/13 03:12:25;;;;;;;3.00;2.80;;;22.10;99.90;;;;;;5028862;28;20455;-91
2022/07/13 03:14:52;;;;;;;4.00;3.67;;;22.10;99.90;;;;;;5032619;28;20625;-91
2022/07/13 03:17:19;;;;;;;3.17;2.97;;;22.10;99.90;;;;;;5035889;28;20456;-92
2022/07/13 03:19:45;;;;;;;4.23;3.93;;;22.10;99.90;;;;;;5016722;28;20553;-92
2022/07/13 03:22:12;;;;;;;3.60;3.30;;;22.10;99.90;;;;;;5020894;28;20454;-91
2022/07/13 03:24:40;;;;;;;4.43;4.13;;;22.10;99.90;;;;;;5018600;28;20464;-90
2022/07/13 03:27:07;;;;;;;4.20;3.90;;;22.10;99.90;;;;;;5019680;28;20666;-88
2022/07/13 03:29:34;;;;;;;4.00;3.70;;;22.00;99.90;;;;;;5022027;28;20465;-90
2022/07/13 03:32:01;;;;;;;8.43;8.03;;;22.00;99.90;;;;;;5022677;28;20446;-91
2022/07/13 03:34:28;;;;;;;16.63;15.83;;;22.10;99.90;;;;;;5034721;28;20460;-90
2022/07/13 03:36:54;;;;;;;56.20;54.30;;;22.00;99.90;;;;;;5035274;28;20457;-92
2022/07/13 03:39:21;;;;;;;39.83;38.50;;;22.00;99.90;;;;;;5026166;28;20898;-91
2022/07/13 03:41:49;;;;;;;323.97;311.93;;;22.00;99.90;;;;;;5038497;28;20461;-90
2022/07/13 03:44:16;;;;;;;204.47;197.10;;;22.00;99.90;;;;;;5031865;28;20974;-90
2022/07/13 03:46:43;;;;;;;189.47;183.17;;;22.00;99.90;;;;;;5032796;28;20456;-91
2022/07/13 03:49:10;;;;;;;20.57;19.67;;;22.00;99.90;;;;;;5040228;28;20453;-89
2022/07/13 03:51:38;;;;;;;10.80;10.30;;;22.00;99.90;;;;;;5025417;28;20456;-90
2022/07/13 03:54:05;;;;;;;10.13;9.53;;;21.90;99.90;;;;;;5019142;28;20449;-92
2022/07/13 03:56:31;;;;;;;5.33;5.03;;;21.90;99.90;;;;;;5020487;28;20953;-92
2022/07/13 03:59:00;;;;;;;5.30;5.00;;;22.00;99.90;;;;;;5032930;28;20453;-92
2022/07/13 04:01:26;;;;;;;5.40;5.00;;;21.90;99.90;;;;;;5021946;28;20459;-92
2022/07/13 04:03:53;;;;;;;5.40;5.10;;;22.00;99.90;;;;;;5044048;28;20461;-90
2022/07/13 04:06:20;;;;;;;4.63;4.43;;;21.90;99.90;;;;;;5046174;28;20472;-89
2022/07/13 04:08:47;;;;;;;4.43;4.03;;;21.90;99.90;;;;;;5031786;28;20477;-91
2022/07/13 04:11:14;;;;;;;5.93;5.63;;;21.90;99.90;;;;;;5028917;28;20823;-90
2022/07/13 04:13:40;;;;;;;7.60;7.00;;;21.90;99.90;;;;;;5039877;28;21653;-91
2022/07/13 04:16:09;;;;;;;6.23;5.83;;;21.90;99.90;;;;;;5028294;28;20969;-91
2022/07/13 04:18:36;;;;;;;8.93;8.43;;;21.90;99.90;;;;;;5020670;28;20451;-92
2022/07/13 04:21:03;;;;;;;18.53;17.70;;;21.90;99.90;;;;;;5031940;28;20561;-92
2022/07/13 04:23:30;;;;;;;192.57;186.20;;;21.90;99.90;;;;;;5013172;28;20463;-91
2022/07/13 04:25:57;;;;;;;15.50;14.90;;;21.90;99.90;;;;;;5022123;28;21037;-91
2022/07/13 04:28:24;;;;;;;6.80;6.40;;;21.90;99.90;;;;;;5033467;28;21012;-91
2022/07/13 04:30:51;;;;;;;4.23;4.03;;;21.90;99.90;;;;;;5025816;28;20455;-92
2022/07/13 04:33:19;;;;;;;3.57;3.27;;;21.90;99.90;;;;;;5020811;28;20459;-92
2022/07/13 04:35:47;;;;;;;5.60;3.50;;;21.90;99.90;;;;;;5023042;28;20458;-93
2022/07/13 04:38:14;;;;;;;4.93;4.63;;;21.90;99.90;;;;;;5023781;28;20493;-94
2022/07/13 04:40:40;;;;;;;4.70;4.30;;;21.90;99.90;;;;;;5018869;28;20538;-93
2022/07/13 04:43:07;;;;;;;4.20;3.20;;;21.90;99.90;;;;;;5040262;28;20464;-92
2022/07/13 04:45:34;;;;;;;5.30;4.90;;;21.90;99.90;;;;;;5022313;28;20466;-93
2022/07/13 04:48:01;;;;;;;3.63;3.33;;;21.90;99.90;;;;;;5024120;28;20478;-91
2022/07/13 04:50:29;;;;;;;3.97;3.63;;;21.90;99.90;;;;;;5018325;28;20486;-91
2022/07/13 04:52:56;;;;;;;5.00;4.57;;;21.90;99.90;;;;;;5032860;28;21783;-91
2022/07/13 04:55:23;;;;;;;5.50;5.10;;;21.90;99.90;;;;;;5028440;28;20459;-89
2022/07/13 04:57:50;;;;;;;5.80;5.50;;;21.90;99.90;;;;;;5036640;28;20513;-90
2022/07/13 05:00:17;;;;;;;20.30;19.30;;;21.90;99.90;;;;;;5026779;28;20818;-88
2022/07/13 05:02:44;;;;;;;108.67;104.77;;;21.90;99.90;;;;;;5015353;28;20479;-93
2022/07/13 05:05:11;;;;;;;9.63;8.90;;;21.90;99.90;;;;;;5020293;28;20468;-92
2022/07/13 05:07:39;;;;;;;3.97;3.70;;;21.90;99.90;;;;;;5044057;28;20469;-89
2022/07/13 05:10:07;;;;;;;4.40;4.00;;;21.90;99.90;;;;;;5015117;28;20455;-90
2022/07/13 05:12:39;;;;;;;4.20;3.90;;;21.90;99.90;;;;;;5024182;28;20473;-90
2022/07/13 05:15:07;;;;;;;3.30;3.10;;;21.80;99.90;;;;;;5013958;28;20454;-87
2022/07/13 05:17:33;;;;;;;3.40;3.10;;;21.80;99.90;;;;;;5016686;28;20451;-90
2022/07/13 05:20:00;;;;;;;3.27;3.03;;;21.80;99.90;;;;;;5031382;28;20458;-89
2022/07/13 05:22:27;;;;;;;3.00;2.70;;;21.90;99.90;;;;;;5014933;28;20447;-89
2022/07/13 05:24:55;;;;;;;3.10;2.90;;;21.80;99.90;;;;;;5017980;28;20456;-89
2022/07/13 05:27:22;;;;;;;2.97;2.77;;;21.80;99.90;;;;;;5015057;28;20473;-90
2022/07/13 05:29:50;;;;;;;3.50;2.83;;;21.80;99.90;;;;;;5028115;28;20470;-91
2022/07/13 05:32:17;;;;;;;2.97;2.77;;;21.80;99.90;;;;;;5023599;28;20443;-90
2022/07/13 05:34:44;;;;;;;3.10;2.67;;;21.80;99.90;;;;;;5034959;28;20953;-90
2022/07/13 05:37:11;;;;;;;4.53;3.30;;;21.80;99.90;;;;;;5024554;28;21081;-90
2022/07/13 05:39:38;;;;;;;2.20;2.00;;;21.80;99.90;;;;;;5027682;28;20461;-91
2022/07/13 05:42:06;;;;;;;2.80;2.60;;;21.80;99.90;;;;;;5031777;28;20532;-90
2022/07/13 05:44:33;;;;;;;2.60;2.33;;;21.80;99.90;;;;;;5029134;28;20466;-92
2022/07/13 05:47:00;;;;;;;2.80;2.60;;;21.80;99.90;;;;;;5016839;28;20444;-91
2022/07/13 05:49:27;;;;;;;3.03;2.77;;;21.80;99.90;;;;;;5013109;28;20483;-90
2022/07/13 05:51:54;;;;;;;3.20;2.70;;;21.80;99.90;;;;;;5033979;28;20453;-90
2022/07/13 05:54:21;;;;;;;3.00;2.80;;;21.80;99.90;;;;;;5022443;28;20531;-89
2022/07/13 05:56:48;;;;;;;2.77;2.57;;;21.80;99.90;;;;;;5027353;28;20455;-89
2022/07/13 05:59:16;;;;;;;2.30;2.10;;;21.80;99.90;;;;;;5039174;28;20451;-89
2022/07/13 06:01:43;;;;;;;3.77;2.67;;;21.90;99.90;;;;;;5029943;28;20569;-89
2022/07/13 06:04:10;;;;;;;2.53;2.17;;;21.90;99.90;;;;;;5027008;28;20465;-88
2022/07/13 06:06:37;;;;;;;3.13;2.40;;;22.00;99.90;;;;;;5044750;28;20458;-88
2022/07/13 06:09:04;;;;;;;3.70;3.03;;;22.10;99.90;;;;;;5035551;28;20477;-88
2022/07/13 06:11:31;;;;;;;2.53;2.33;;;22.20;99.90;;;;;;5028378;28;20864;-87
2022/07/13 06:13:58;;;;;;;4.03;3.73;;;22.30;99.90;;;;;;5038135;28;20445;-88
2022/07/13 06:16:26;;;;;;;3.27;3.07;;;22.30;99.90;;;;;;5024863;28;20454;-89
2022/07/13 06:18:53;;;;;;;5.53;5.23;;;22.40;99.90;;;;;;5031798;28;20473;-88
2022/07/13 06:21:20;;;;;;;123.30;119.03;;;22.40;99.90;;;;;;5028907;28;20859;-88
2022/07/13 06:23:46;;;;;;;15.97;15.37;;;22.40;99.90;;;;;;5016306;28;20455;-90
2022/07/13 06:26:13;;;;;;;13.70;13.10;;;22.40;99.90;;;;;;5028490;28;20534;-85
2022/07/13 06:28:40;;;;;;;20.67;19.97;;;22.30;99.90;;;;;;5018129;28;20486;-87
2022/07/13 06:31:07;;;;;;;37.97;36.60;;;22.30;99.90;;;;;;5018553;28;20869;-86
2022/07/13 06:33:35;;;;;;;90.67;87.67;;;22.30;99.90;;;;;;5012102;28;20930;-86
2022/07/13 06:36:02;;;;;;;15.63;15.03;;;22.30;99.90;;;;;;5013834;28;20469;-87
2022/07/13 06:38:29;;;;;;;18.57;17.93;;;22.30;99.90;;;;;;5012020;28;20467;-87
2022/07/13 06:40:55;;;;;;;32.47;31.33;;;22.30;99.90;;;;;;5011457;28;20458;-88
2022/07/13 06:43:22;;;;;;;28.27;27.27;;;22.30;99.90;;;;;;5016210;28;20450;-88
2022/07/13 06:45:49;;;;;;;167.43;162.00;;;22.40;99.90;;;;;;5027118;28;20856;-87
2022/07/13 06:48:16;;;;;;;32.10;31.00;;;22.50;99.90;;;;;;5039911;28;20481;-86
2022/07/13 06:50:44;;;;;;;99.30;96.07;;;22.50;99.90;;;;;;5016698;28;20458;-88
2022/07/13 06:53:11;;;;;;;24.40;23.40;;;22.50;99.90;;;;;;5017068;28;20466;-85
2022/07/13 06:55:38;;;;;;;8.47;8.17;;;22.50;99.90;;;;;;5014938;28;20463;-85
2022/07/13 06:58:05;;;;;;;9.23;8.77;;;22.50;99.90;;;;;;5019476;28;20466;-85
2022/07/13 07:00:32;;;;;;;4.00;3.80;;;22.50;99.90;;;;;;5015072;28;20463;-84
2022/07/13 07:02:58;;;;;;;10.70;10.20;;;22.40;99.90;;;;;;5018883;28;21038;-84
2022/07/13 07:05:26;;;;;;;8.70;8.40;;;22.40;99.90;;;;;;5015924;28;20474;-85
2022/07/13 07:07:54;;;;;;;6.80;6.50;;;22.40;99.90;;;;;;5023802;28;20807;-84
2022/07/13 07:10:21;;;;;;;46.70;45.00;;;22.40;99.90;;;;;;5014130;28;20478;-84
2022/07/13 07:12:48;;;;;;;18.63;17.93;;;22.40;99.90;;;;;;5018204;28;20447;-84
2022/07/13 07:15:15;;;;;;;11.77;11.23;;;22.50;99.90;;;;;;5018059;28;20812;-84
2022/07/13 07:17:45;;;;;;;9.90;9.50;;;22.40;99.90;;;;;;5031573;28;20445;-85
2022/07/13 07:20:15;;;;;;;9.83;9.47;;;22.50;99.90;;;;;;5018391;28;20459;-84
2022/07/13 07:22:42;;;;;;;17.73;17.13;;;22.50;99.90;;;;;;5020779;28;20469;-85
2022/07/13 07:25:10;;;;;;;9.40;9.00;;;22.50;99.90;;;;;;5009471;28;20520;-84
2022/07/13 07:27:37;;;;;;;16.93;16.23;;;22.50;99.90;;;;;;5016683;28;20457;-84
2022/07/13 07:30:05;;;;;;;12.60;12.10;;;22.50;99.90;;;;;;5018409;28;20475;-82
2022/07/13 07:32:32;;;;;;;2.70;2.50;;;22.50;99.90;;;;;;5029358;28;20454;-84
2022/07/13 07:34:59;;;;;;;2.43;2.33;;;22.50;99.90;;;;;;5015155;28;20453;-84
2022/07/13 07:37:26;;;;;;;2.67;2.47;;;22.60;99.90;;;;;;5023473;28;20473;-84
2022/07/13 07:39:53;;;;;;;2.73;2.53;;;22.60;99.90;;;;;;5016990;28;20451;-84
2022/07/13 07:42:21;;;;;;;3.47;3.20;;;22.70;99.90;;;;;;5022801;28;20945;-84
2022/07/13 07:44:48;;;;;;;3.80;3.50;;;22.80;99.90;;;;;;5017516;28;20474;-84
2022/07/13 07:47:15;;;;;;;3.10;2.60;;;22.90;99.90;;;;;;5015938;28;20451;-84
2022/07/13 07:49:42;;;;;;;2.33;2.20;;;22.90;99.90;;;;;;5015221;28;20475;-82
2022/07/13 07:52:09;;;;;;;10.53;3.20;;;23.00;99.90;;;;;;5030671;28;20856;-84
2022/07/13 07:54:36;;;;;;;3.80;3.37;;;23.40;99.90;;;;;;5021395;28;20830;-83
2022/07/13 07:57:03;;;;;;;3.53;3.30;;;23.50;99.90;;;;;;5033695;28;20940;-84
2022/07/13 07:59:31;;;;;;;4.43;2.70;;;23.50;99.90;;;;;;5027682;28;20473;-84
2022/07/13 08:01:59;;;;;;;3.23;2.93;;;23.40;99.90;;;;;;5027216;28;20470;-84
2022/07/13 08:04:25;;;;;;;2.57;2.37;;;23.40;99.90;;;;;;5026449;28;20451;-86
2022/07/13 08:06:53;;;;;;;3.97;2.43;;;23.40;99.90;;;;;;5018971;28;20470;-84
2022/07/13 08:09:20;;;;;;;3.60;2.73;;;23.40;99.90;;;;;;5016952;28;20474;-85
2022/07/13 08:11:46;;;;;;;4.03;2.70;;;23.50;99.90;;;;;;5016173;28;20974;-85
2022/07/13 08:14:13;;;;;;;4.03;3.63;;;23.50;99.90;;;;;;5029601;28;20469;-89
2022/07/13 08:16:41;;;;;;;2.80;2.60;;;23.50;99.90;;;;;;5037839;28;20450;-91
2022/07/13 08:19:08;;;;;;;2.73;2.50;;;23.50;99.90;;;;;;5030504;28;20949;-86
2022/07/13 08:21:35;;;;;;;3.77;3.57;;;23.50;99.90;;;;;;5022784;28;20461;-87
2022/07/13 08:24:02;;;;;;;10.37;9.87;;;23.60;99.90;;;;;;5021296;28;20497;-88
2022/07/13 08:26:30;;;;;;;134.80;130.27;;;23.50;99.90;;;;;;5026385;28;20460;-88
2022/07/13 08:28:58;;;;;;;13.30;12.80;;;23.50;99.90;;;;;;5011378;28;20497;-85
2022/07/13 08:31:26;;;;;;;10.13;9.63;;;23.50;99.90;;;;;;5022324;28;20449;-87
2022/07/13 08:39:25;;;;;;;6.23;5.93;;;23.40;99.90;;;;;;5034755;28;20574;-89
2022/07/13 08:41:52;;;;;;;7.20;6.60;;;23.40;99.90;;;;;;5023746;28;20458;-87
2022/07/13 08:44:19;;;;;;;14.37;13.67;;;23.60;99.90;;;;;;5016722;28;20447;-88
2022/07/13 08:46:46;;;;;;;46.33;44.77;;;24.20;99.90;;;;;;5014768;28;20467;-88
2022/07/13 08:49:15;;;;;;;11.00;10.50;;;24.30;99.90;;;;;;5017175;28;20560;-86
2022/07/13 08:51:44;;;;;;;8.43;7.70;;;24.30;99.90;;;;;;5024988;28;20463;-87
2022/07/13 08:54:11;;;;;;;14.03;13.13;;;24.30;99.90;;;;;;5027208;28;20458;-86
2022/07/13 08:56:40;;;;;;;69.23;66.87;;;24.30;99.90;;;;;;5035775;28;20468;-87
2022/07/13 08:59:07;;;;;;;7.60;7.10;;;24.30;99.90;;;;;;5010351;28;20949;-88
2022/07/13 09:01:34;;;;;;;3.50;3.20;;;24.30;99.90;;;;;;5012984;28;20454;-87
2022/07/13 09:04:01;;;;;;;3.43;3.13;;;24.30;99.90;;;;;;5012536;28;20447;-89
2022/07/13 09:06:47;;;;;;;3.17;2.97;;;24.30;99.90;;;;;;5016490;28;20922;-88
2022/07/13 09:09:41;;;;;;;2.70;2.30;;;24.30;99.90;;;;;;5015381;28;20490;-88
2022/07/13 09:12:12;;;;;;;3.67;3.47;;;24.20;99.90;;;;;;4989148;28;20494;-85
2022/07/13 09:14:39;;;;;;;3.30;3.10;;;24.20;99.90;;;;;;5011533;28;20451;-85
2022/07/13 09:17:06;;;;;;;4.70;4.30;;;24.20;99.90;;;;;;5015526;28;21270;-87
2022/07/13 09:19:39;;;;;;;6.70;6.40;;;24.20;99.90;;;;;;5020187;28;20945;-88
2022/07/13 09:22:10;;;;;;;4.47;4.17;;;24.20;99.90;;;;;;5014400;28;21027;-86
2022/07/13 09:24:44;;;;;;;13.07;12.57;;;24.30;99.90;;;;;;5024083;28;20470;-87
2022/07/13 09:27:11;;;;;;;8.60;8.10;;;24.30;99.90;;;;;;5036399;28;20477;-86
2022/07/13 09:29:38;;;;;;;6.13;5.83;;;24.40;99.90;;;;;;5030656;28;20489;-86
2022/07/13 09:32:08;;;;;;;89.10;86.13;;;24.40;99.90;;;;;;5023927;28;21230;-87
2022/07/13 09:34:46;;;;;;;2.60;2.40;;;24.40;99.90;;;;;;5024294;28;20966;-88
2022/07/13 09:37:15;;;;;;;3.63;3.33;;;24.40;99.90;;;;;;5026060;28;20460;-85
2022/07/13 09:40:00;;;;;;;2.63;2.43;;;24.40;99.90;;;;;;5020180;28;20467;-87
2022/07/13 09:42:28;;;;;;;2.53;2.30;;;24.40;99.90;;;;;;5019087;28;20451;-87
2022/07/13 09:47:47;;;;;;;3.07;2.80;;;24.30;99.90;;;;;;5034082;28;20432;-87
2022/07/13 09:50:17;;;;;;;2.50;2.40;;;24.30;99.90;;;;;;5037295;28;21077;-87
2022/07/13 09:52:45;;;;;;;2.60;2.40;;;24.30;99.90;;;;;;5034065;28;20516;-88
2022/07/13 09:55:13;;;;;;;4.23;4.03;;;24.30;99.90;;;;;;5031845;28;20461;-90
2022/07/13 09:57:46;;;;;;;3.00;2.80;;;24.30;99.90;;;;;;5036199;28;20894;-89
2022/07/13 10:00:17;;;;;;;2.90;2.70;;;24.30;99.90;;;;;;5035260;28;20813;-87
2022/07/13 10:02:46;;;;;;;3.13;2.93;;;24.30;99.90;;;;;;5040281;28;21005;-89
2022/07/13 10:05:15;;;;;;;6.27;5.83;;;24.30;99.90;;;;;;5038296;28;20835;-91
2022/07/13 10:07:43;;;;;;;74.57;72.00;;;24.40;99.90;;;;;;5024289;28;21077;-90
2022/07/13 10:10:12;;;;;;;6.40;6.10;;;24.50;99.90;;;;;;5025044;28;20522;-91
2022/07/13 10:12:40;;;;;;;4.23;3.87;;;24.60;99.90;;;;;;5036769;28;20466;-86
2022/07/13 10:15:09;;;;;;;4.23;3.93;;;24.60;99.90;;;;;;5038316;28;20458;-89
2022/07/13 10:17:37;;;;;;;5.73;5.27;;;24.60;99.90;;;;;;5020390;28;20497;-89
2022/07/13 10:20:09;;;;;;;3.97;3.77;;;24.70;99.90;;;;;;5022474;28;20454;-86
2022/07/13 10:22:39;;;;;;;3.20;3.00;;;24.70;99.90;;;;;;5040868;28;20454;-89
2022/07/13 10:25:07;;;;;;;6.00;3.60;;;24.70;99.90;;;;;;5019241;28;20442;-86
2022/07/13 10:27:37;;;;;;;2.10;1.80;;;24.70;99.90;;;;;;5038022;28;20455;-90
2022/07/13 10:30:06;;;;;;;3.87;3.67;;;24.70;99.90;;;;;;5021028;28;20470;-90
2022/07/13 10:32:35;;;;;;;3.63;3.43;;;24.70;99.90;;;;;;5034843;28;20525;-89
2022/07/13 10:35:05;;;;;;;61.13;59.03;;;24.80;99.90;;;;;;5013118;28;20463;-88
2022/07/13 10:38:05;;;;;;;2.17;1.97;;;24.90;99.90;;;;;;5023478;28;20526;-92
2022/07/13 10:40:33;;;;;;;2.20;1.90;;;25.00;99.90;;;;;;5019688;28;20535;-88
2022/07/13 10:43:28;;;;;;;2.80;2.03;;;25.00;99.90;;;;;;5016165;28;20485;-90
2022/07/13 10:45:55;;;;;;;2.20;2.00;;;25.00;99.90;;;;;;5018381;28;20962;-92
2022/07/13 10:48:43;;;;;;;3.37;2.27;;;25.00;99.90;;;;;;5021865;28;20463;-89
2022/07/13 10:51:21;;;;;;;4.17;2.20;;;25.10;99.90;;;;;;5016066;28;20536;-88
2022/07/13 10:54:05;;;;;;;1.67;1.57;;;25.00;99.90;;;;;;5018845;28;20889;-91
2022/07/13 10:57:09;;;;;;;2.40;2.30;;;25.10;99.90;;;;;;5017922;28;20466;-89
2022/07/13 10:59:50;;;;;;;3.27;2.40;;;25.10;99.90;;;;;;5018563;28;20829;-89
2022/07/13 11:02:42;;;;;;;2.37;1.90;;;25.10;99.90;;;;;;5018853;28;20478;-87
2022/07/13 11:05:09;;;;;;;2.83;2.63;;;25.10;99.90;;;;;;5016334;28;20992;-89
2022/07/13 11:07:44;;;;;;;5.87;5.60;;;25.20;99.90;;;;;;5016266;28;20450;-91
2022/07/13 11:10:20;;;;;;;100.33;96.87;;;25.20;99.90;;;;;;5019957;28;20491;-89
2022/07/13 11:13:01;;;;;;;5.23;4.93;;;25.20;99.90;;;;;;5034368;28;20462;-89
2022/07/13 11:15:49;;;;;;;1.70;1.60;;;25.30;99.90;;;;;;5036436;28;20804;-91
2022/07/13 11:18:30;;;;;;;2.63;2.43;;;25.30;99.90;;;;;;5027825;28;20545;-89
2022/07/13 11:20:59;;;;;;;4.30;2.13;;;25.30;99.90;;;;;;5017202;28;20713;-85
2022/07/13 11:26:19;;;;;;;3.87;3.67;;;25.30;99.90;;;;;;5015057;28;20969;-89
2022/07/13 11:28:52;;;;;;;3.40;3.10;;;25.30;99.90;;;;;;5032812;28;20900;-89
2022/07/13 11:31:21;;;;;;;3.83;3.57;;;25.30;99.90;;;;;;5016623;28;20572;-88
2022/07/13 11:33:51;;;;;;;50.90;49.03;;;25.40;99.90;;;;;;5014753;28;20459;-89
2022/07/13 11:36:23;;;;;;;3.73;2.47;;;25.40;99.90;;;;;;5017191;28;20458;-89
2022/07/13 11:38:53;;;;;;;4.20;2.53;;;25.40;99.90;;;;;;5014060;28;20459;-90
2022/07/13 11:41:23;;;;;;;2.07;1.87;;;25.30;99.90;;;;;;5008727;28;20950;-89
2022/07/13 11:43:50;;;;;;;5.97;2.20;;;25.30;99.90;;;;;;5015364;28;20966;-89
2022/07/13 11:46:24;;;;;;;5.80;2.73;;;25.30;99.90;;;;;;5023375;28;20455;-90
2022/07/13 11:48:59;;;;;;;5.40;2.30;;;25.30;99.90;;;;;;5027894;28;20463;-88
2022/07/13 11:51:26;;;;;;;4.03;2.20;;;25.30;99.90;;;;;;5010027;28;20561;-90
2022/07/13 11:53:53;;;;;;;2.57;2.37;;;25.30;99.90;;;;;;5016835;28;20845;-90
2022/07/13 11:56:20;;;;;;;2.30;2.10;;;25.30;99.90;;;;;;5016146;28;20456;-92
2022/07/13 11:58:47;;;;;;;2.60;2.40;;;25.30;99.90;;;;;;5015208;28;21053;-91
2022/07/13 12:01:17;;;;;;;5.87;5.47;;;25.30;99.90;;;;;;5020739;28;20516;-89
2022/07/13 12:03:50;;;;;;;3.93;3.73;;;25.30;99.90;;;;;;5021975;28;20485;-90
2022/07/13 12:06:17;;;;;;;3.73;3.53;;;25.30;99.90;;;;;;5017960;28;20439;-89
2022/07/13 12:08:45;;;;;;;4.90;3.00;;;25.30;99.90;;;;;;5011390;28;20475;-88
2022/07/13 12:11:15;;;;;;;2.80;2.60;;;25.40;99.90;;;;;;5016360;28;21084;-91
2022/07/13 12:13:43;;;;;;;3.43;2.77;;;25.40;99.90;;;;;;5015469;28;20499;-90
2022/07/13 12:16:11;;;;;;;2.80;2.60;;;25.40;99.90;;;;;;5010322;28;20889;-91
2022/07/13 12:19:03;;;;;;;42.87;41.40;;;25.40;99.90;;;;;;5016363;28;20455;-91
2022/07/13 12:21:31;;;;;;;2.60;2.40;;;25.50;99.90;;;;;;5012736;28;21027;-89
2022/07/13 12:23:58;;;;;;;4.80;1.73;;;25.50;99.90;;;;;;5016741;28;20463;-90
2022/07/13 12:26:26;;;;;;;3.13;1.50;;;25.50;99.90;;;;;;5015047;28;20459;-90
2022/07/13 12:28:53;;;;;;;1.83;1.70;;;25.50;99.90;;;;;;5011742;28;20474;-90
2022/07/13 12:31:21;;;;;;;3.43;2.00;;;25.50;99.90;;;;;;5018402;28;20474;-89
2022/07/13 12:33:50;;;;;;;2.13;1.87;;;25.50;99.90;;;;;;5011110;28;20820;-88
2022/07/13 12:36:22;;;;;;;2.03;1.60;;;25.60;99.90;;;;;;5012837;28;20463;-90
2022/07/13 12:38:54;;;;;;;5.23;1.60;;;25.60;99.90;;;;;;5014142;28;20486;-92
2022/07/13 12:41:29;;;;;;;2.27;1.83;;;25.60;99.90;;;;;;5014163;28;20526;-90
2022/07/13 12:43:57;;;;;;;2.20;1.57;;;25.60;99.90;;;;;;5011733;28;20823;-91
2022/07/13 12:46:25;;;;;;;6.10;1.63;;;25.60;99.90;;;;;;5015335;28;20466;-89
2022/07/13 12:49:03;;;;;;;1.70;1.60;;;25.60;99.90;;;;;;5016052;28;21005;-90
2022/07/13 12:51:52;;;;;;;2.03;1.40;;;25.70;99.90;;;;;;5031276;28;20481;-91
2022/07/13 12:54:40;;;;;;;1.87;1.67;;;25.70;99.90;;;;;;5019464;28;20458;-90
2022/07/13 12:57:10;;;;;;;8.07;1.87;;;25.70;99.90;;;;;;5025796;28;20473;-89
2022/07/13 12:59:37;;;;;;;4.67;1.60;;;25.60;99.90;;;;;;5032588;28;20892;-87